createdAt,value
2022-11-02T00:02:41.075Z,16.51
2022-11-02T00:06:41.497Z,16.69
2022-11-02T00:10:41.707Z,16.68
2022-11-02T00:14:44.458Z,16.80
2022-11-02T00:18:47.663Z,16.75
2022-11-02T00:22:50.619Z,16.69
2022-11-02T00:26:50.995Z,16.69
2022-11-02T00:30:53.779Z,16.45
2022-11-02T00:34:53.880Z,16.45
2022-11-02T00:38:54.273Z,16.44
2022-11-02T00:42:54.404Z,16.28
2022-11-02T00:46:57.193Z,16.05
2022-11-02T00:50:58.362Z,16.11
2022-11-02T00:55:01.788Z,16.09
2022-11-02T00:59:03.351Z,16.31
2022-11-02T01:03:06.562Z,16.04
2022-11-02T01:07:07.419Z,16.13
2022-11-02T01:11:16.504Z,15.92
2022-11-02T01:15:17.498Z,15.88
2022-11-02T01:19:20.269Z,15.96
2022-11-02T01:23:20.372Z,15.94
2022-11-02T01:27:21.117Z,15.95
2022-11-02T01:31:21.486Z,15.78
2022-11-02T01:35:24.260Z,16.10
2022-11-02T01:39:24.444Z,15.85
2022-11-02T01:43:27.629Z,15.91
2022-11-02T01:47:32.580Z,15.81
2022-11-02T01:51:42.755Z,15.93
2022-11-02T01:55:44.260Z,15.85
2022-11-02T01:59:50.711Z,15.67
2022-11-02T02:03:52.750Z,15.65
2022-11-02T02:07:56.687Z,15.61
2022-11-02T02:11:56.806Z,15.54
2022-11-02T02:16:10.953Z,15.50
2022-11-02T02:20:23.472Z,15.54
2022-11-02T02:24:51.186Z,15.46
2022-11-02T02:29:02.667Z,15.43
2022-11-02T02:33:11.931Z,15.37
2022-11-02T02:37:21.458Z,15.30
2022-11-02T02:41:32.107Z,15.10
2022-11-02T02:45:41.496Z,15.30
2022-11-02T02:49:53.375Z,15.19
2022-11-02T02:54:03.325Z,15.06
2022-11-02T02:58:07.313Z,14.75
2022-11-02T03:02:19.870Z,14.72
2022-11-02T03:06:27.605Z,14.74
2022-11-02T03:10:37.591Z,14.76
2022-11-02T03:14:55.843Z,14.67
2022-11-02T03:19:15.414Z,14.77
2022-11-02T03:23:24.535Z,14.86
2022-11-02T03:27:36.868Z,14.84
2022-11-02T03:31:44.345Z,14.69
2022-11-02T03:35:58.204Z,14.67
2022-11-02T03:40:11.847Z,14.53
2022-11-02T03:44:20.120Z,14.49
2022-11-02T03:48:24.692Z,14.47
2022-11-02T03:52:35.198Z,14.52
2022-11-02T03:56:42.345Z,13.79
2022-11-02T04:00:53.079Z,14.18
2022-11-02T04:04:55.202Z,14.13
2022-11-02T04:09:00.990Z,13.94
2022-11-02T04:13:26.089Z,13.97
2022-11-02T04:17:38.824Z,13.80
2022-11-02T04:22:04.774Z,13.62
2022-11-02T04:26:07.243Z,13.31
2022-11-02T04:30:16.187Z,13.10
2022-11-02T04:34:16.448Z,13.10
2022-11-02T04:38:29.186Z,13.11
2022-11-02T04:42:33.494Z,13.10
2022-11-02T04:46:38.250Z,12.99
2022-11-02T04:50:40.279Z,12.73
2022-11-02T04:54:42.053Z,12.56
2022-11-02T04:58:45.223Z,12.52
2022-11-02T05:02:45.556Z,12.44
2022-11-02T05:06:45.818Z,12.39
2022-11-02T05:10:46.259Z,12.32
2022-11-02T05:14:49.416Z,12.11
2022-11-02T05:18:50.476Z,12.06
2022-11-02T05:22:52.499Z,12.07
2022-11-02T05:26:54.619Z,12.07
2022-11-02T05:31:03.352Z,12.03
2022-11-02T05:35:06.234Z,12.18
2022-11-02T05:39:07.369Z,12.06
2022-11-02T05:43:08.187Z,11.88
2022-11-02T05:47:11.910Z,12.08
2022-11-02T05:51:13.955Z,12.03
2022-11-02T05:55:14.855Z,11.94
2022-11-02T05:59:15.031Z,11.85
2022-11-02T06:03:17.943Z,11.90
2022-11-02T06:07:18.068Z,11.78
2022-11-02T06:11:20.234Z,11.64
2022-11-02T06:15:20.528Z,11.81
2022-11-02T06:19:23.364Z,11.75
2022-11-02T06:23:23.585Z,11.79
2022-11-02T06:27:25.599Z,11.40
2022-11-02T06:31:25.938Z,11.58
2022-11-02T06:35:28.678Z,11.54
2022-11-02T06:39:28.826Z,11.57
2022-11-02T06:43:29.360Z,11.84
2022-11-02T06:47:33.981Z,12.19
2022-11-02T06:51:37.024Z,12.57
2022-11-02T06:55:37.219Z,12.89
2022-11-02T06:59:37.435Z,13.27
2022-11-02T07:03:38.160Z,13.16
2022-11-02T07:07:40.942Z,13.56
2022-11-02T07:11:41.078Z,13.50
2022-11-02T07:15:42.121Z,13.46
2022-11-02T07:19:42.319Z,13.50
2022-11-02T07:23:45.050Z,14.05
2022-11-02T07:27:45.181Z,14.44
2022-11-02T07:31:45.487Z,15.42
2022-11-02T07:35:45.608Z,15.70
2022-11-02T07:39:48.415Z,15.61
2022-11-02T07:43:48.689Z,16.00
2022-11-02T07:47:58.697Z,16.26
2022-11-02T07:51:59.541Z,16.64
2022-11-02T07:56:03.696Z,17.00
2022-11-02T08:00:03.915Z,17.49
2022-11-02T08:04:11.760Z,17.76
2022-11-02T08:08:15.960Z,18.28
2022-11-02T08:12:18.768Z,18.59
2022-11-02T08:16:18.888Z,18.64
2022-11-02T08:20:19.998Z,19.17
2022-11-02T08:24:20.208Z,19.69
2022-11-02T08:28:25.892Z,20.00
2022-11-02T08:32:26.023Z,20.15
2022-11-02T08:36:26.144Z,20.45
2022-11-02T08:40:27.040Z,20.50
2022-11-02T08:44:29.831Z,20.41
2022-11-02T08:48:30.465Z,20.36
2022-11-02T08:52:30.613Z,20.42
2022-11-02T08:56:33.736Z,20.08
2022-11-02T09:00:37.806Z,20.47
2022-11-02T09:04:38.030Z,20.53
2022-11-02T09:08:38.237Z,20.57
2022-11-02T09:12:38.498Z,20.45
2022-11-02T09:16:41.891Z,20.59
2022-11-02T09:20:42.099Z,20.69
2022-11-02T09:24:42.216Z,20.39
2022-11-02T09:28:42.532Z,19.91
2022-11-02T09:32:45.213Z,19.74
2022-11-02T09:36:45.686Z,19.19
2022-11-02T09:40:54.037Z,19.07
2022-11-02T09:45:03.374Z,19.77
2022-11-02T09:49:14.072Z,19.79
2022-11-02T09:53:24.711Z,19.64
2022-11-02T09:57:31.788Z,19.84
2022-11-02T10:01:56.221Z,19.38
2022-11-02T10:06:06.572Z,18.64
2022-11-02T10:10:17.959Z,18.02
2022-11-02T10:14:25.376Z,17.99
2022-11-02T10:18:30.042Z,17.61
2022-11-02T10:22:40.579Z,17.65
2022-11-02T10:26:43.651Z,17.63
2022-11-02T10:30:46.737Z,18.51
2022-11-02T10:34:58.511Z,19.25
2022-11-02T10:39:22.029Z,19.67
2022-11-02T10:43:41.083Z,20.26
2022-11-02T10:47:55.649Z,20.56
2022-11-02T10:51:55.823Z,21.67
2022-11-02T10:56:07.734Z,21.96
2022-11-02T11:00:32.636Z,21.67
2022-11-02T11:04:35.144Z,22.15
2022-11-02T11:08:42.699Z,22.00
2022-11-02T11:12:46.467Z,22.74
2022-11-02T11:16:51.897Z,23.01
2022-11-02T11:20:58.855Z,22.73
2022-11-02T11:25:28.029Z,22.92
2022-11-02T11:29:34.997Z,21.39
2022-11-02T11:33:43.832Z,21.56
2022-11-02T11:37:52.512Z,21.83
2022-11-02T11:41:52.892Z,21.14
2022-11-02T11:46:07.242Z,21.47
2022-11-02T11:50:20.017Z,21.15
2022-11-02T11:54:28.509Z,20.53
2022-11-02T11:58:30.930Z,21.12
2022-11-02T12:02:42.977Z,21.02
2022-11-02T12:06:57.861Z,21.43
2022-11-02T12:11:24.796Z,22.13
2022-11-02T12:15:45.311Z,23.30
2022-11-02T12:20:15.494Z,24.52
2022-11-02T12:24:49.707Z,23.70
2022-11-02T12:29:10.446Z,22.87
2022-11-02T12:33:37.516Z,22.22
2022-11-02T12:38:00.429Z,21.76
2022-11-02T12:42:20.470Z,21.30
2022-11-02T12:46:39.086Z,21.25
2022-11-02T12:51:00.856Z,21.27
2022-11-02T12:55:12.105Z,20.74
2022-11-02T12:59:24.431Z,20.49
2022-11-02T13:03:38.587Z,20.28
2022-11-02T13:07:47.254Z,20.23
2022-11-02T13:11:59.422Z,19.63
2022-11-02T13:16:00.759Z,20.06
2022-11-02T13:20:08.452Z,20.57
2022-11-02T13:24:16.224Z,22.11
2022-11-02T13:28:33.894Z,22.59
2022-11-02T13:32:41.985Z,23.30
2022-11-02T13:36:43.306Z,22.49
2022-11-02T13:40:50.719Z,21.50
2022-11-02T13:45:37.548Z,21.25
2022-11-02T13:49:43.252Z,21.23
2022-11-02T13:53:52.236Z,20.55
2022-11-02T13:57:57.696Z,19.88
2022-11-02T14:02:04.465Z,20.64
2022-11-02T14:06:14.051Z,20.54
2022-11-02T14:10:21.711Z,21.15
2022-11-02T14:14:26.050Z,20.68
2022-11-02T14:18:35.465Z,21.24
2022-11-02T14:22:35.686Z,21.99
2022-11-02T14:26:59.606Z,21.56
2022-11-02T14:31:28.766Z,21.06
2022-11-02T14:35:59.564Z,21.89
2022-11-02T14:40:14.348Z,21.47
2022-11-02T14:45:03.236Z,22.08
2022-11-02T14:49:06.509Z,23.24
2022-11-02T14:53:21.742Z,23.41
2022-11-02T14:57:28.821Z,23.09
2022-11-02T15:01:29.074Z,24.11
2022-11-02T15:05:33.880Z,23.83
2022-11-02T15:10:02.496Z,22.82
2022-11-02T15:14:02.611Z,23.24
2022-11-02T15:18:25.127Z,21.91
2022-11-02T15:22:40.740Z,21.66
2022-11-02T15:26:50.987Z,21.47
2022-11-02T15:30:55.658Z,21.25
2022-11-02T15:34:58.423Z,20.82
2022-11-02T15:38:59.667Z,20.34
2022-11-02T15:43:28.544Z,20.02
2022-11-02T15:47:45.805Z,19.43
2022-11-02T15:51:58.502Z,19.00
2022-11-02T15:56:23.986Z,18.54
2022-11-02T16:00:30.400Z,18.31
2022-11-02T16:04:31.364Z,18.09
2022-11-02T16:08:38.034Z,17.55
2022-11-02T16:12:38.240Z,17.42
2022-11-02T16:16:50.524Z,17.25
2022-11-02T16:20:50.833Z,16.84
2022-11-02T16:24:52.230Z,16.78
2022-11-02T16:28:55.145Z,16.63
2022-11-02T16:33:04.710Z,16.40
2022-11-02T16:37:10.350Z,16.25
2022-11-02T16:41:12.598Z,16.18
2022-11-02T16:45:43.276Z,16.14
2022-11-02T16:50:04.276Z,16.02
2022-11-02T16:54:30.336Z,15.81
2022-11-02T16:58:31.764Z,15.73
2022-11-02T17:02:41.146Z,15.71
2022-11-02T17:06:47.132Z,15.41
2022-11-02T17:10:48.098Z,15.36
2022-11-02T17:14:51.895Z,15.27
2022-11-02T17:18:52.146Z,15.16
2022-11-02T17:23:01.761Z,15.07
2022-11-02T17:27:21.707Z,14.91
2022-11-02T17:31:25.498Z,14.80
2022-11-02T17:35:27.425Z,14.51
2022-11-02T17:39:30.691Z,14.40
2022-11-02T17:43:31.136Z,14.41
2022-11-02T17:47:32.435Z,14.25
2022-11-02T17:51:33.250Z,14.03
2022-11-02T17:55:37.693Z,14.01
2022-11-02T17:59:37.798Z,13.54
2022-11-02T18:03:37.921Z,13.74
2022-11-02T18:07:38.080Z,13.93
2022-11-02T18:11:40.826Z,13.75
2022-11-02T18:15:41.352Z,13.75
2022-11-02T18:19:41.403Z,13.58
2022-11-02T18:23:43.498Z,13.49
2022-11-02T18:27:46.522Z,13.38
2022-11-02T18:31:46.734Z,13.39
2022-11-02T18:35:47.325Z,13.36
2022-11-02T18:39:47.516Z,13.28
2022-11-02T18:43:50.272Z,13.16
2022-11-02T18:47:50.459Z,13.12
2022-11-02T18:51:50.606Z,13.11
2022-11-02T18:55:50.804Z,13.07
2022-11-02T18:59:53.551Z,12.83
2022-11-02T19:03:54.259Z,12.83
2022-11-02T19:08:07.082Z,12.75
2022-11-02T19:12:11.628Z,12.63
2022-11-02T19:16:14.396Z,12.62
2022-11-02T19:20:15.001Z,12.56
2022-11-02T19:24:15.724Z,12.38
2022-11-02T19:28:15.883Z,12.32
2022-11-02T19:32:19.539Z,12.26
2022-11-02T19:36:20.034Z,12.24
2022-11-02T19:40:20.097Z,12.27
2022-11-02T19:44:20.484Z,11.91
2022-11-02T19:48:23.190Z,11.99
2022-11-02T19:52:23.972Z,11.99
2022-11-02T19:56:27.446Z,11.92
2022-11-02T20:00:27.628Z,11.99
2022-11-02T20:04:30.474Z,11.97
2022-11-02T20:08:30.606Z,11.99
2022-11-02T20:12:30.643Z,11.84
2022-11-02T20:16:31.662Z,11.68
2022-11-02T20:20:34.476Z,11.65
2022-11-02T20:24:34.631Z,11.62
2022-11-02T20:28:35.179Z,11.37
2022-11-02T20:32:35.273Z,11.39
2022-11-02T20:36:39.441Z,11.37
2022-11-02T20:40:41.394Z,11.23
2022-11-02T20:44:42.139Z,11.23
2022-11-02T20:48:42.398Z,11.16
2022-11-02T20:52:46.804Z,11.27
2022-11-02T20:56:46.949Z,11.25
2022-11-02T21:00:49.275Z,11.11
2022-11-02T21:04:49.654Z,10.98
2022-11-02T21:08:52.532Z,10.84
2022-11-02T21:13:05.518Z,10.69
2022-11-02T21:17:07.887Z,10.73
2022-11-02T21:21:10.530Z,10.76
2022-11-02T21:25:14.413Z,10.73
2022-11-02T21:29:14.828Z,10.69
2022-11-02T21:33:14.911Z,10.70
2022-11-02T21:37:15.044Z,10.32
2022-11-02T21:41:26.123Z,10.58
2022-11-02T21:45:26.527Z,10.54
2022-11-02T21:49:26.831Z,10.25
2022-11-02T21:53:27.165Z,10.30
2022-11-02T21:57:29.923Z,10.42
2022-11-02T22:01:49.316Z,10.27
2022-11-02T22:05:59.671Z,10.22
2022-11-02T22:09:59.979Z,10.27
2022-11-02T22:14:04.036Z,9.85
2022-11-02T22:18:04.208Z,10.24
2022-11-02T22:22:05.145Z,10.27
2022-11-02T22:26:08.919Z,10.32
2022-11-02T22:30:13.855Z,10.27
2022-11-02T22:34:16.252Z,10.19
2022-11-02T22:38:28.882Z,10.03
2022-11-02T22:42:29.021Z,9.82
2022-11-02T22:46:35.185Z,9.97
2022-11-02T22:50:35.347Z,9.82
2022-11-02T22:54:35.467Z,9.76
2022-11-02T22:58:36.306Z,9.71
2022-11-02T23:02:39.113Z,9.68
2022-11-02T23:06:39.205Z,9.63
2022-11-02T23:10:54.477Z,9.50
2022-11-02T23:14:54.830Z,9.52
2022-11-02T23:19:18.892Z,9.48
2022-11-02T23:23:36.081Z,9.44
2022-11-02T23:28:00.130Z,9.44
2022-11-02T23:32:12.958Z,9.35
2022-11-02T23:36:16.142Z,9.36
2022-11-02T23:40:20.140Z,9.33
2022-11-02T23:44:20.319Z,9.32
2022-11-02T23:48:20.510Z,9.42
2022-11-02T23:52:35.699Z,9.42
2022-11-02T23:56:46.589Z,9.54
